WIZ985 ESGG-ESSA
Flight info
| Callsign | WIZ985 |
|---|---|
| Flight time | 0h 38m |
| Altitude | 27000 |
| Route | LABAN4J LABAN N873 ARS T317 ELTOK ELTOK8M |
| Aircraft | A320/M-SDE1FGHILORVWXY/L |
Departure
| Time | 2026-05-04 16:56 |
|---|---|
| Airport | Göteborg Landvetter Airport (ESGG) |
Arrival
| Time | 2026-05-04 17:35 |
|---|---|
| Airport | Stockholm-Arlanda Airport (ESSA) |
| Time | Latitude | Longitude | Altitude | Speed | Heading |
|---|---|---|---|---|---|
| 2026-05-04 16:18 | 57.66459 | 12.29083 | 524 ft | 0 kts | 117° |
| 2026-05-04 16:26 | 57.66459 | 12.29082 | 523 ft | 0 kts | 117° |
| 2026-05-04 16:37 | 57.66460 | 12.29082 | 523 ft | 0 kts | 117° |
| 2026-05-04 16:46 | 57.66470 | 12.28952 | 523 ft | 4 kts | 45° |
| 2026-05-04 16:46 | 57.66462 | 12.28939 | 523 ft | 0 kts | 26° |
| 2026-05-04 16:49 | 57.66474 | 12.28951 | 523 ft | 2 kts | 27° |
| 2026-05-04 16:49 | 57.66523 | 12.28961 | 524 ft | 5 kts | 348° |
| 2026-05-04 16:50 | 57.66579 | 12.28987 | 524 ft | 1 kts | 24° |
| 2026-05-04 16:50 | 57.66608 | 12.29013 | 524 ft | 4 kts | 26° |
| 2026-05-04 16:51 | 57.66641 | 12.29039 | 525 ft | 0 kts | 357° |
| 2026-05-04 16:51 | 57.66643 | 12.29029 | 525 ft | 1 kts | 302° |
| 2026-05-04 16:51 | 57.66636 | 12.28905 | 524 ft | 10 kts | 284° |
| 2026-05-04 16:52 | 57.66814 | 12.28979 | 526 ft | 19 kts | 30° |
| 2026-05-04 16:52 | 57.66940 | 12.29093 | 527 ft | 18 kts | 25° |
| 2026-05-04 16:53 | 57.67218 | 12.29344 | 530 ft | 24 kts | 26° |
| 2026-05-04 16:53 | 57.67392 | 12.29475 | 532 ft | 7 kts | 348° |
| 2026-05-04 16:54 | 57.67406 | 12.29460 | 532 ft | 3 kts | 322° |
| 2026-05-04 16:55 | 57.67376 | 12.28973 | 530 ft | 18 kts | 205° |
| 2026-05-04 16:55 | 57.66355 | 12.28038 | 520 ft | 135 kts | 206° |
| 2026-05-04 16:56 | 57.64312 | 12.26326 | 1048 ft | 178 kts | 208° |
| 2026-05-04 16:56 | 57.60333 | 12.25960 | 2868 ft | 223 kts | 163° |
| 2026-05-04 16:57 | 57.58896 | 12.27142 | 3642 ft | 228 kts | 159° |
| 2026-05-04 16:57 | 57.56679 | 12.31303 | 5057 ft | 250 kts | 101° |
| 2026-05-04 16:58 | 57.58243 | 12.41530 | 6682 ft | 293 kts | 62° |
| 2026-05-04 16:58 | 57.59109 | 12.45018 | 7456 ft | 300 kts | 62° |
| 2026-05-04 16:59 | 57.60837 | 12.52251 | 8958 ft | 313 kts | 58° |
| 2026-05-04 17:00 | 57.67686 | 12.62827 | 10931 ft | 351 kts | 28° |
| 2026-05-04 17:00 | 57.73800 | 12.70947 | 12889 ft | 367 kts | 29° |
| 2026-05-04 17:01 | 57.77965 | 12.76531 | 14110 ft | 375 kts | 29° |
| 2026-05-04 17:01 | 57.82240 | 12.82279 | 15314 ft | 380 kts | 29° |
| 2026-05-04 17:02 | 57.86573 | 12.88115 | 16485 ft | 387 kts | 29° |
| 2026-05-04 17:02 | 57.90977 | 12.94040 | 17680 ft | 392 kts | 28° |
| 2026-05-04 17:03 | 57.93201 | 12.97038 | 18244 ft | 395 kts | 28° |
| 2026-05-04 17:03 | 57.95443 | 13.00067 | 18770 ft | 398 kts | 28° |
| 2026-05-04 17:03 | 57.99947 | 13.06173 | 19797 ft | 405 kts | 29° |
| 2026-05-04 17:04 | 58.04551 | 13.12433 | 20772 ft | 411 kts | 29° |
| 2026-05-04 17:04 | 58.09220 | 13.18813 | 21701 ft | 417 kts | 29° |
| 2026-05-04 17:05 | 58.13412 | 13.26736 | 22585 ft | 433 kts | 43° |
| 2026-05-04 17:05 | 58.17378 | 13.35335 | 23475 ft | 440 kts | 44° |
| 2026-05-04 17:06 | 58.21416 | 13.44149 | 24131 ft | 449 kts | 44° |
| 2026-05-04 17:06 | 58.23484 | 13.48660 | 24262 ft | 459 kts | 44° |
| 2026-05-04 17:07 | 58.27680 | 13.57844 | 25275 ft | 452 kts | 44° |
| 2026-05-04 17:07 | 58.29026 | 13.60812 | 25943 ft | 444 kts | 44° |
| 2026-05-04 17:07 | 58.31726 | 13.66768 | 26571 ft | 447 kts | 44° |
| 2026-05-04 17:07 | 58.33750 | 13.71222 | 26758 ft | 455 kts | 44° |
| 2026-05-04 17:08 | 58.35840 | 13.75817 | 26804 ft | 465 kts | 44° |
| 2026-05-04 17:08 | 58.40165 | 13.85362 | 26791 ft | 486 kts | 45° |
| 2026-05-04 17:08 | 58.42388 | 13.90294 | 26789 ft | 495 kts | 45° |
| 2026-05-04 17:09 | 58.44649 | 13.95335 | 26787 ft | 504 kts | 45° |
| 2026-05-04 17:09 | 58.46931 | 14.00439 | 26788 ft | 507 kts | 45° |
| 2026-05-04 17:09 | 58.49221 | 14.05572 | 26780 ft | 508 kts | 45° |
| 2026-05-04 17:10 | 58.53778 | 14.15793 | 26836 ft | 508 kts | 45° |
| 2026-05-04 17:10 | 58.60676 | 14.31347 | 26779 ft | 512 kts | 45° |
| 2026-05-04 17:11 | 58.62975 | 14.36562 | 26782 ft | 512 kts | 45° |
| 2026-05-04 17:11 | 58.65272 | 14.41789 | 26780 ft | 512 kts | 45° |
| 2026-05-04 17:11 | 58.69863 | 14.52248 | 26773 ft | 512 kts | 45° |
| 2026-05-04 17:12 | 58.72158 | 14.57477 | 26768 ft | 512 kts | 45° |
| 2026-05-04 17:12 | 58.76706 | 14.67888 | 26796 ft | 511 kts | 45° |
| 2026-05-04 17:13 | 58.83546 | 14.83661 | 26753 ft | 511 kts | 45° |
| 2026-05-04 17:14 | 58.90374 | 14.99529 | 26729 ft | 512 kts | 45° |
| 2026-05-04 17:14 | 58.92647 | 15.04832 | 26729 ft | 512 kts | 45° |
| 2026-05-04 17:14 | 58.97123 | 15.15565 | 26717 ft | 516 kts | 51° |
| 2026-05-04 17:15 | 58.99108 | 15.21373 | 26721 ft | 516 kts | 52° |
| 2026-05-04 17:15 | 59.03003 | 15.33009 | 26727 ft | 519 kts | 53° |
| 2026-05-04 17:16 | 59.06898 | 15.44828 | 26706 ft | 520 kts | 53° |
| 2026-05-04 17:16 | 59.12672 | 15.62437 | 25874 ft | 509 kts | 53° |
| 2026-05-04 17:17 | 59.14574 | 15.68228 | 25350 ft | 505 kts | 53° |
| 2026-05-04 17:17 | 59.20159 | 15.85309 | 23712 ft | 496 kts | 53° |
| 2026-05-04 17:18 | 59.22003 | 15.90969 | 23049 ft | 491 kts | 53° |
| 2026-05-04 17:18 | 59.25642 | 16.02203 | 20567 ft | 488 kts | 54° |
| 2026-05-04 17:19 | 59.29248 | 16.13406 | 17626 ft | 480 kts | 54° |
| 2026-05-04 17:19 | 59.32709 | 16.24241 | 14972 ft | 459 kts | 55° |
| 2026-05-04 17:20 | 59.35993 | 16.34551 | 12556 ft | 439 kts | 55° |
| 2026-05-04 17:20 | 59.39119 | 16.44386 | 10987 ft | 411 kts | 55° |
| 2026-05-04 17:20 | 59.40593 | 16.49057 | 10789 ft | 394 kts | 55° |
| 2026-05-04 17:21 | 59.43450 | 16.58107 | 10716 ft | 401 kts | 56° |
| 2026-05-04 17:21 | 59.46393 | 16.67414 | 9589 ft | 396 kts | 56° |
| 2026-05-04 17:22 | 59.47813 | 16.71934 | 8166 ft | 392 kts | 56° |
| 2026-05-04 17:22 | 59.49222 | 16.76438 | 7311 ft | 378 kts | 56° |
| 2026-05-04 17:23 | 59.53272 | 16.89460 | 6994 ft | 371 kts | 56° |
| 2026-05-04 17:23 | 59.54625 | 16.93812 | 6989 ft | 372 kts | 56° |
| 2026-05-04 17:23 | 59.57320 | 17.02492 | 6994 ft | 371 kts | 56° |
| 2026-05-04 17:24 | 59.58646 | 17.06782 | 6990 ft | 371 kts | 56° |
| 2026-05-04 17:24 | 59.62655 | 17.19829 | 6877 ft | 364 kts | 56° |
| 2026-05-04 17:25 | 59.63935 | 17.24020 | 6759 ft | 350 kts | 56° |
| 2026-05-04 17:25 | 59.66444 | 17.32208 | 6090 ft | 351 kts | 56° |
| 2026-05-04 17:26 | 59.68913 | 17.40285 | 5088 ft | 329 kts | 56° |
| 2026-05-04 17:26 | 59.72341 | 17.51624 | 4822 ft | 319 kts | 56° |
| 2026-05-04 17:27 | 59.74501 | 17.58986 | 4317 ft | 292 kts | 59° |
| 2026-05-04 17:27 | 59.76535 | 17.65732 | 3267 ft | 282 kts | 54° |
| 2026-05-04 17:28 | 59.78597 | 17.72302 | 2507 ft | 277 kts | 54° |
| 2026-05-04 17:29 | 59.81400 | 17.81281 | 2472 ft | 232 kts | 54° |
| 2026-05-04 17:29 | 59.82639 | 17.89985 | 2488 ft | 222 kts | 87° |
| 2026-05-04 17:30 | 59.82576 | 17.99073 | 2461 ft | 219 kts | 116° |
| 2026-05-04 17:31 | 59.80284 | 18.01756 | 2461 ft | 192 kts | 200° |
| 2026-05-04 17:31 | 59.76473 | 18.00114 | 2407 ft | 175 kts | 198° |
| 2026-05-04 17:32 | 59.74237 | 17.99301 | 2035 ft | 157 kts | 199° |
| 2026-05-04 17:33 | 59.71016 | 17.98120 | 1399 ft | 158 kts | 199° |
| 2026-05-04 17:33 | 59.69932 | 17.97725 | 1186 ft | 157 kts | 195° |
| 2026-05-04 17:34 | 59.66777 | 17.96588 | 549 ft | 152 kts | 194° |
| 2026-05-04 17:34 | 59.65737 | 17.96247 | 337 ft | 151 kts | 198° |
| 2026-05-04 17:35 | 59.63138 | 17.95271 | 143 ft | 37 kts | 196° |
| 2026-05-04 17:35 | 59.62907 | 17.95002 | 140 ft | 9 kts | 232° |
| 2026-05-04 17:35 | 59.62892 | 17.94968 | 139 ft | 0 kts | 224° |
| 2026-05-04 17:36 | 59.62891 | 17.94966 | 139 ft | 0 kts | 221° |
| 2026-05-04 17:36 | 59.62887 | 17.94961 | 139 ft | 3 kts | 219° |
| 2026-05-04 17:37 | 59.62863 | 17.94922 | 139 ft | 0 kts | 219° |
| 2026-05-04 17:37 | 59.62853 | 17.94903 | 139 ft | 5 kts | 229° |
| 2026-05-04 17:37 | 59.62855 | 17.94793 | 138 ft | 11 kts | 306° |
| 2026-05-04 17:37 | 59.62951 | 17.94779 | 138 ft | 18 kts | 11° |
| 2026-05-04 17:38 | 59.63042 | 17.94813 | 138 ft | 22 kts | 10° |
| 2026-05-04 17:38 | 59.63214 | 17.94874 | 138 ft | 28 kts | 11° |
| 2026-05-04 17:38 | 59.63467 | 17.94967 | 138 ft | 30 kts | 9° |
| 2026-05-04 17:38 | 59.63656 | 17.95035 | 138 ft | 25 kts | 11° |
| 2026-05-04 17:39 | 59.63914 | 17.95131 | 138 ft | 20 kts | 9° |
| 2026-05-04 17:39 | 59.64013 | 17.95165 | 138 ft | 24 kts | 10° |
| 2026-05-04 17:39 | 59.64175 | 17.95219 | 138 ft | 20 kts | 12° |
| 2026-05-04 17:40 | 59.64240 | 17.95247 | 138 ft | 12 kts | 12° |
| 2026-05-04 17:40 | 59.64343 | 17.95284 | 138 ft | 18 kts | 9° |
| 2026-05-04 17:40 | 59.64489 | 17.95338 | 138 ft | 24 kts | 11° |
| 2026-05-04 17:40 | 59.64677 | 17.95406 | 138 ft | 30 kts | 10° |
| 2026-05-04 17:41 | 59.64847 | 17.95467 | 138 ft | 23 kts | 10° |
| 2026-05-04 17:41 | 59.65021 | 17.95513 | 138 ft | 29 kts | 355° |
| 2026-05-04 17:41 | 59.65232 | 17.95415 | 138 ft | 34 kts | 345° |
| 2026-05-04 17:41 | 59.65471 | 17.95289 | 138 ft | 38 kts | 345° |
| 2026-05-04 17:42 | 59.65639 | 17.95201 | 138 ft | 20 kts | 343° |
| 2026-05-04 17:42 | 59.65691 | 17.95173 | 138 ft | 0 kts | 345° |
| 2026-05-04 17:42 | 59.65707 | 17.95160 | 138 ft | 6 kts | 335° |
| 2026-05-04 17:42 | 59.65746 | 17.95067 | 138 ft | 12 kts | 286° |
| 2026-05-04 17:43 | 59.65731 | 17.94872 | 138 ft | 17 kts | 256° |
| 2026-05-04 17:43 | 59.65698 | 17.94619 | 138 ft | 21 kts | 255° |
| 2026-05-04 17:43 | 59.65659 | 17.94317 | 138 ft | 25 kts | 256° |
| 2026-05-04 17:43 | 59.65614 | 17.93962 | 138 ft | 28 kts | 256° |
| 2026-05-04 17:44 | 59.65568 | 17.93606 | 138 ft | 23 kts | 255° |
| 2026-05-04 17:44 | 59.65534 | 17.93333 | 138 ft | 14 kts | 256° |
| 2026-05-04 17:44 | 59.65518 | 17.93206 | 138 ft | 8 kts | 257° |
| 2026-05-04 17:44 | 59.65500 | 17.93064 | 138 ft | 14 kts | 256° |
| 2026-05-04 17:45 | 59.65466 | 17.92858 | 138 ft | 10 kts | 248° |
| 2026-05-04 17:45 | 59.65454 | 17.92805 | 138 ft | 0 kts | 246° |
| 2026-05-04 17:45 | 59.65444 | 17.92762 | 138 ft | 7 kts | 243° |
| 2026-05-04 17:45 | 59.65395 | 17.92682 | 138 ft | 12 kts | 185° |
| 2026-05-04 17:46 | 59.65296 | 17.92762 | 137 ft | 19 kts | 152° |
| 2026-05-04 17:46 | 59.65211 | 17.92838 | 137 ft | 7 kts | 178° |
| 2026-05-04 17:46 | 59.65176 | 17.92825 | 137 ft | 8 kts | 192° |
| 2026-05-04 17:46 | 59.65143 | 17.92812 | 137 ft | 1 kts | 191° |